Terminal Aerodrome Forecast
Issued by NWS Duluth, MN

Home | Current Version | Previous Version | Text Only | Print | Product List | Glossary On
Versions: 1 2 3 4 5 6 7 8 9 10 11 12 13 14 15 16 17 18 19 20 21 22 23 24 25 26 27 28 29 30 31 32 33
000
FTUS43 KDLH 300537
TAFDLH
TAF
KDLH 300537Z 3006/0106 11003KT P6SM BKN012 OVC023
      TEMPO 3006/3008 SCT012 OVC023
     FM300800 11003KT 4SM BR VCSH OVC015
     FM301400 04006KT 4SM -SN BR OVC010
     FM301800 01006KT 3SM -RASN BR OVC007=

USA.gov is the U.S. government's official web portal to all federal, state and local government web resources and services.